Мирный

Карта отелей и гостиниц, располагающихся рядом с аэропортом Мирный :

Мирный Республика Саха (Якутия) 62° 32' 4.8012" N, 114° 2' 20.3388" E
Код аэродрома ИКАО
UERR
Код аэродрома RU
УЕРР
Координаты
N62.53467° E114.03898°
Превышение над уровнем моря
361
Основная полоса
07/25
Курс магнитный
067/247
Длина основной ВПП
2805
Ширина основной ВПП
45
Покрытие основной ВПП
Твёрдое (бетон)
Освещение ВПП
Постоянное
Тип: 
Аэродром
Принадлежность: 
ГА
Статус: 
Действующий
Страна: 
Россия
Регион: 
Республика Саха (Якутия)
Дополнительная информация: 
Оператор: Мирнинское АП АК «Алроса». ЭССО: ОМИ "Транскон" (Чехия). Военный индекс: XERR / ЬЕРР. Обеспечивает ряд региональных рейсов, а также внутренние прямые рейсы в Иркутск, Красноярск, Новосибирск, Москву. Является запасным аэропортом на трансконтинентальных маршрутах из Северной Америки в Азию, выполняемых в соответствии с международным стандартом ETOPS. В экстренных ситуациях может принять такие лайнеры, как Airbus A300, Boeing 757, Boeing 767 и др.
Схемы аэропортов: 
Погода: 

Авиационная погода в Мирном

Регион: 
Погода METAR: 
UERR 170000Z 29007MPS 1000 SHSN VV002 M07/M09 Q0998 R25/490432 TEMPO 0300 +SHSN VV001 RMK QBB070 QFE718/0958
Время наблюдения
2021-05-17T00:00:00Z
Температура C
-7.0
Точка росы
-9.0
Направление ветра
290
Скорость ветра (узлы)
14
Метео видимость
0.62
Явления погоды
SHSN
Условия полета
LIFR
Аэропорт подробнее: 

Найти трансфер

С помощью этой формы Вы можете найти трансфер из аэропорта Мирный в город, аэропорт или вокзал:

Карта места

Javascript is required to view this map.

Погода в аэропортах:

Авиационная погода в Иркутске

Регион: 
Погода METAR: 
UIII 170000Z 31004MPS 9000 -SHRA OVC004CB 09/09 Q1008 R30/290150 NOSIG RMK QBB120 QFE712/0949
Время наблюдения
2021-05-17T00:00:00Z
Температура C
9.0
Точка росы
9.0
Направление ветра
310
Скорость ветра (узлы)
8
Метео видимость
5.59
Явления погоды
-SHRA
Условия полета
LIFR
Аэропорт подробнее: 

Авиационная погода в Каяани

Регион: 
Погода METAR: 
EFKI 162350Z AUTO 13003KT 0650 R25/P2000N FG NSC 08/08 Q1009
Время наблюдения
2021-05-16T23:50:00Z
Температура C
8.0
Точка росы
8.0
Направление ветра
130
Скорость ветра (узлы)
3
Метео видимость
0.4
Явления погоды
FG
Условия полета
LIFR

Авиационная погода в Киркенесе

Регион: 
Погода METAR: 
ENKR 162350Z AUTO 11002KT 1800 BR VV003 02/01 Q1011 REUP RERA RMK WIND 731FT 10004KT
Время наблюдения
2021-05-16T23:50:00Z
Температура C
2.0
Точка росы
1.0
Направление ветра
110
Скорость ветра (узлы)
2
Метео видимость
1.12
Явления погоды
BR RA
Условия полета
LIFR

Авиационная погода в Череповце

Регион: 
Погода METAR: 
ULWC 161800Z 00000MPS 9999 MIFG SCT026CB 14/13 Q1010 R21/290260 NOSIG RMK QFE748/0997
Время наблюдения
2021-05-16T18:00:00Z
Температура C
14.0
Точка росы
13.0
Направление ветра
0
Скорость ветра (узлы)
0
Метео видимость
6.21
Явления погоды
MIFG
Условия полета
VFR
Аэропорт подробнее: